createdAt,value
2018-11-04T00:01:06.074Z,4.30
2018-11-04T00:03:36.890Z,3.90
2018-11-04T00:06:05.413Z,3.90
2018-11-04T00:08:33.741Z,4.20
2018-11-04T00:11:02.158Z,4.00
2018-11-04T00:13:30.568Z,4.10
2018-11-04T00:15:58.772Z,3.30
2018-11-04T00:18:27.429Z,3.90
2018-11-04T00:20:55.664Z,4.10
2018-11-04T00:23:23.893Z,3.90
2018-11-04T00:25:52.384Z,3.80
2018-11-04T00:28:20.826Z,4.10
2018-11-04T00:30:49.155Z,4.10
2018-11-04T00:33:17.471Z,3.40
2018-11-04T00:35:45.919Z,4.00
2018-11-04T00:38:14.488Z,3.70
2018-11-04T00:40:42.889Z,3.70
2018-11-04T00:43:11.149Z,4.00
2018-11-04T00:45:39.561Z,3.60
2018-11-04T00:48:07.830Z,3.50
2018-11-04T00:50:36.191Z,4.00
2018-11-04T00:53:04.971Z,4.00
2018-11-04T00:55:33.565Z,3.40
2018-11-04T00:58:02.029Z,4.00
2018-11-04T01:00:30.402Z,3.60
2018-11-04T01:02:58.872Z,3.50
2018-11-04T01:05:29.236Z,3.40
2018-11-04T01:07:57.568Z,3.50
2018-11-04T01:10:25.997Z,3.90
2018-11-04T01:12:54.252Z,3.40
2018-11-04T01:15:22.636Z,3.70
2018-11-04T01:17:51.004Z,3.70
2018-11-04T01:20:19.286Z,3.20
2018-11-04T01:22:47.657Z,4.00
2018-11-04T01:25:16.147Z,3.30
2018-11-04T01:27:44.420Z,3.60
2018-11-04T01:30:14.268Z,3.60
2018-11-04T01:32:42.898Z,4.10
2018-11-04T01:35:11.249Z,3.90
2018-11-04T01:37:39.560Z,3.70
2018-11-04T01:40:09.298Z,3.80
2018-11-04T01:42:38.180Z,3.40
2018-11-04T01:45:08.401Z,3.60
2018-11-04T01:47:36.800Z,3.70
2018-11-04T01:50:07.615Z,3.70
2018-11-04T01:52:35.959Z,3.50
2018-11-04T01:55:05.206Z,3.10
2018-11-04T01:57:33.571Z,3.60
2018-11-04T02:00:01.987Z,3.60
2018-11-04T02:02:30.597Z,3.20
2018-11-04T02:04:58.845Z,3.50
2018-11-04T02:07:40.606Z,3.60
2018-11-04T02:10:11.078Z,3.70
2018-11-04T02:12:39.730Z,3.60
2018-11-04T02:15:10.346Z,2.80
2018-11-04T02:17:38.865Z,3.80
2018-11-04T02:20:09.434Z,4.00
2018-11-04T02:22:38.008Z,3.90
2018-11-04T02:25:07.303Z,3.80
2018-11-04T02:27:35.670Z,4.00
2018-11-04T02:30:05.066Z,3.90
2018-11-04T02:32:33.355Z,3.70
2018-11-04T02:35:01.768Z,4.00
2018-11-04T02:37:30.045Z,3.70
2018-11-04T02:39:58.492Z,3.90
2018-11-04T02:42:26.885Z,3.50
2018-11-04T02:44:55.159Z,3.70
2018-11-04T02:47:23.408Z,3.60
2018-11-04T02:49:51.859Z,3.30
2018-11-04T02:52:20.191Z,2.90
2018-11-04T02:54:48.673Z,3.50
2018-11-04T02:57:17.241Z,3.70
2018-11-04T02:59:45.508Z,3.60
2018-11-04T03:02:13.878Z,3.80
2018-11-04T03:04:42.361Z,3.70
2018-11-04T03:07:10.615Z,3.50
2018-11-04T03:09:38.887Z,3.30
2018-11-04T03:12:07.448Z,3.30
2018-11-04T03:14:35.792Z,3.50
2018-11-04T03:17:04.191Z,3.50
2018-11-04T03:19:32.690Z,3.20
2018-11-04T03:22:01.138Z,3.40
2018-11-04T03:24:29.813Z,2.80
2018-11-04T03:26:58.011Z,3.10
2018-11-04T03:29:26.427Z,2.40
2018-11-04T03:31:54.695Z,3.20
2018-11-04T03:34:23.854Z,3.60
2018-11-04T03:36:52.243Z,3.60
2018-11-04T03:39:20.577Z,3.60
2018-11-04T03:41:49.016Z,3.50
2018-11-04T03:44:17.272Z,3.00
2018-11-04T03:46:45.703Z,3.60
2018-11-04T03:49:13.980Z,3.50
2018-11-04T03:51:42.249Z,3.20
2018-11-04T03:54:10.608Z,3.60
2018-11-04T03:56:38.935Z,3.60
2018-11-04T03:59:07.624Z,3.40
2018-11-04T04:01:36.075Z,3.20
2018-11-04T04:04:04.410Z,3.30
2018-11-04T04:06:32.761Z,3.10
2018-11-04T04:09:01.275Z,3.20
2018-11-04T04:11:29.744Z,3.20
2018-11-04T04:13:58.088Z,3.20
2018-11-04T04:16:26.404Z,3.50
2018-11-04T04:18:54.858Z,3.20
2018-11-04T04:21:24.207Z,3.40
2018-11-04T04:23:52.540Z,2.90
2018-11-04T04:26:20.792Z,3.30
2018-11-04T04:28:49.316Z,3.40
2018-11-04T04:31:17.578Z,3.50
2018-11-04T04:33:45.839Z,3.60
2018-11-04T04:36:14.263Z,3.30
2018-11-04T04:38:42.537Z,3.50
2018-11-04T04:41:10.773Z,3.40
2018-11-04T04:43:41.142Z,3.00
2018-11-04T04:46:09.479Z,2.80
2018-11-04T04:48:37.826Z,2.60
2018-11-04T04:51:06.315Z,3.40
2018-11-04T04:53:34.656Z,2.70
2018-11-04T04:56:03.556Z,3.30
2018-11-04T04:58:31.827Z,3.10
2018-11-04T05:01:00.281Z,3.20
2018-11-04T05:03:28.783Z,3.10
2018-11-04T05:05:57.120Z,2.50
2018-11-04T05:08:25.400Z,3.00
2018-11-04T05:10:53.876Z,3.00
2018-11-04T05:13:22.132Z,2.50
2018-11-04T05:15:51.221Z,2.40
2018-11-04T05:18:19.709Z,2.80
2018-11-04T05:20:48.024Z,2.10
2018-11-04T05:23:16.365Z,2.60
2018-11-04T05:25:44.839Z,2.70
2018-11-04T05:28:13.184Z,2.80
2018-11-04T05:30:41.464Z,3.10
2018-11-04T05:33:09.916Z,3.00
2018-11-04T05:35:39.121Z,3.00
2018-11-04T05:38:07.456Z,2.10
2018-11-04T05:40:35.906Z,3.30
2018-11-04T05:43:04.451Z,3.00
2018-11-04T05:45:32.752Z,3.00
2018-11-04T05:48:01.178Z,2.90
2018-11-04T05:50:29.458Z,2.90
2018-11-04T05:52:57.934Z,2.80
2018-11-04T05:55:26.304Z,2.40
2018-11-04T05:57:54.610Z,2.80
2018-11-04T06:00:23.083Z,2.30
2018-11-04T06:02:52.449Z,2.40
2018-11-04T06:05:20.745Z,2.90
2018-11-04T06:07:48.999Z,2.80
2018-11-04T06:10:17.380Z,2.50
2018-11-04T06:12:45.698Z,3.10
2018-11-04T06:15:13.986Z,2.00
2018-11-04T06:17:42.760Z,2.70
2018-11-04T06:20:12.281Z,2.80
2018-11-04T06:22:41.891Z,2.60
2018-11-04T06:25:10.195Z,2.80
2018-11-04T06:27:38.641Z,2.90
2018-11-04T06:30:10.132Z,2.50
2018-11-04T06:32:38.431Z,3.00
2018-11-04T06:35:07.737Z,2.80
2018-11-04T06:37:36.497Z,3.00
2018-11-04T06:40:06.362Z,3.10
2018-11-04T06:42:34.814Z,2.50
2018-11-04T06:45:03.380Z,2.80
2018-11-04T06:47:31.763Z,2.60
2018-11-04T06:50:01.251Z,2.50
2018-11-04T06:52:32.139Z,2.10
2018-11-04T06:55:00.699Z,2.60
2018-11-04T06:57:29.131Z,2.60
2018-11-04T06:59:57.785Z,3.00
2018-11-04T07:02:26.173Z,2.70
2018-11-04T07:04:54.705Z,2.70
2018-11-04T07:07:23.395Z,2.90
2018-11-04T07:09:51.752Z,3.30
2018-11-04T07:12:20.254Z,3.20
2018-11-04T07:14:48.772Z,3.30
2018-11-04T07:17:17.081Z,2.90
2018-11-04T07:19:46.634Z,3.40
2018-11-04T07:22:15.554Z,3.30
2018-11-04T07:24:44.948Z,3.50
2018-11-04T07:27:13.413Z,3.40
2018-11-04T07:29:41.822Z,3.70
2018-11-04T07:32:10.627Z,3.40
2018-11-04T07:34:40.253Z,3.30
2018-11-04T07:37:09.526Z,3.50
2018-11-04T07:39:37.920Z,3.60
2018-11-04T07:42:06.426Z,3.00
2018-11-04T07:44:37.067Z,3.70
2018-11-04T07:47:07.983Z,4.00
2018-11-04T07:49:36.383Z,3.50
2018-11-04T07:52:06.315Z,4.00
2018-11-04T07:54:34.905Z,4.40
2018-11-04T07:57:03.462Z,4.40
2018-11-04T07:59:31.794Z,4.40
2018-11-04T08:02:01.061Z,4.30
2018-11-04T08:04:29.424Z,4.10
2018-11-04T08:06:58.590Z,4.80
2018-11-04T08:09:27.076Z,4.90
2018-11-04T08:11:55.533Z,4.90
2018-11-04T08:14:24.038Z,5.00
2018-11-04T08:16:52.459Z,5.00
2018-11-04T08:19:20.816Z,5.30
2018-11-04T08:21:49.319Z,5.10
2018-11-04T08:24:17.646Z,5.10
2018-11-04T08:26:48.062Z,5.20
2018-11-04T08:29:16.394Z,4.80
2018-11-04T08:31:45.092Z,5.40
2018-11-04T08:34:13.692Z,5.50
2018-11-04T08:36:42.287Z,5.10
2018-11-04T08:39:10.963Z,5.90
2018-11-04T08:41:39.340Z,5.70
2018-11-04T08:44:07.905Z,6.10
2018-11-04T08:46:36.275Z,5.90
2018-11-04T08:49:04.980Z,6.10
2018-11-04T08:51:33.694Z,5.80
2018-11-04T08:54:01.996Z,5.70
2018-11-04T08:56:30.327Z,6.20
2018-11-04T08:58:58.763Z,6.70
2018-11-04T09:01:27.047Z,6.30
2018-11-04T09:03:55.820Z,6.10
2018-11-04T09:06:24.313Z,6.60
2018-11-04T09:08:52.678Z,7.10
2018-11-04T09:11:20.938Z,6.80
2018-11-04T09:13:49.377Z,7.10
2018-11-04T09:16:17.677Z,7.30
2018-11-04T09:18:46.032Z,7.10
2018-11-04T09:21:14.749Z,6.80
2018-11-04T09:23:43.098Z,7.40
2018-11-04T09:26:11.320Z,7.40
2018-11-04T09:28:39.974Z,7.90
2018-11-04T09:31:08.760Z,8.10
2018-11-04T09:33:37.083Z,8.20
2018-11-04T09:36:05.546Z,8.30
2018-11-04T09:38:33.883Z,8.00
2018-11-04T09:41:02.207Z,8.40
2018-11-04T09:43:30.553Z,8.30
2018-11-04T09:45:59.296Z,8.70
2018-11-04T09:48:27.552Z,8.30
2018-11-04T09:50:55.940Z,9.00
2018-11-04T09:53:24.262Z,8.70
2018-11-04T09:55:52.535Z,9.30
2018-11-04T09:58:20.791Z,9.20
2018-11-04T10:00:49.190Z,9.40
2018-11-04T10:03:17.507Z,9.50
2018-11-04T10:05:45.806Z,8.90
2018-11-04T10:08:14.534Z,9.80
2018-11-04T10:10:43.003Z,10.00
2018-11-04T10:13:11.370Z,10.10
2018-11-04T10:15:39.827Z,10.40
2018-11-04T10:18:08.074Z,10.70
2018-11-04T10:20:36.644Z,10.90
2018-11-04T10:23:05.392Z,10.90
2018-11-04T10:25:33.748Z,11.20
2018-11-04T10:28:02.111Z,11.30
2018-11-04T10:30:30.396Z,11.50
2018-11-04T10:32:58.562Z,11.40
2018-11-04T10:35:26.916Z,11.50
2018-11-04T10:37:55.247Z,12.00
2018-11-04T10:40:23.578Z,11.90
2018-11-04T10:42:52.088Z,12.20
2018-11-04T10:45:20.509Z,12.00
2018-11-04T10:47:48.809Z,12.30
2018-11-04T10:50:17.317Z,12.40
2018-11-04T10:52:45.819Z,12.50
2018-11-04T10:55:14.186Z,12.60
2018-11-04T10:57:42.664Z,12.50
2018-11-04T11:00:16.969Z,12.50
2018-11-04T11:02:45.530Z,12.60
2018-11-04T11:05:14.220Z,12.00
2018-11-04T11:07:42.748Z,12.90
2018-11-04T11:10:11.149Z,13.00
2018-11-04T11:12:39.664Z,13.10
2018-11-04T11:15:09.201Z,13.60
2018-11-04T11:17:37.537Z,13.90
2018-11-04T11:20:07.824Z,13.90
2018-11-04T11:22:36.950Z,14.00
2018-11-04T11:25:06.071Z,14.10
2018-11-04T11:27:34.379Z,13.80
2018-11-04T11:30:02.925Z,14.30
2018-11-04T11:32:31.464Z,14.50
2018-11-04T11:34:59.849Z,14.70
2018-11-04T11:37:28.194Z,15.20
2018-11-04T11:39:56.723Z,15.00
2018-11-04T11:42:25.213Z,15.00
2018-11-04T11:44:53.658Z,15.50
2018-11-04T11:47:22.080Z,15.70
2018-11-04T11:49:50.431Z,15.80
2018-11-04T11:52:18.992Z,15.10
2018-11-04T11:54:47.332Z,15.70
2018-11-04T11:57:15.691Z,15.60
2018-11-04T11:59:44.755Z,15.60
2018-11-04T12:02:13.256Z,15.70
2018-11-04T12:04:42.054Z,15.90
2018-11-04T12:07:10.554Z,15.30
2018-11-04T12:09:38.868Z,15.70
2018-11-04T12:12:07.302Z,16.00
2018-11-04T12:14:35.592Z,16.10
2018-11-04T12:17:03.886Z,15.90
2018-11-04T12:19:32.303Z,16.00
2018-11-04T12:22:00.743Z,15.70
2018-11-04T12:24:29.106Z,16.20
2018-11-04T12:26:57.624Z,16.30
2018-11-04T12:29:26.109Z,16.20
2018-11-04T12:31:54.411Z,16.30
2018-11-04T12:34:22.783Z,16.30
2018-11-04T12:36:51.233Z,16.50
2018-11-04T12:39:19.490Z,16.80
2018-11-04T12:41:47.844Z,16.40
2018-11-04T12:44:16.099Z,16.20
2018-11-04T12:46:44.521Z,16.90
2018-11-04T12:49:12.816Z,16.60
2018-11-04T12:51:41.196Z,17.30
2018-11-04T12:54:09.549Z,17.00
2018-11-04T12:56:37.892Z,17.20
2018-11-04T12:59:06.311Z,16.90
2018-11-04T13:01:34.543Z,16.90
2018-11-04T13:04:02.885Z,17.20
2018-11-04T13:06:34.182Z,16.60
2018-11-04T13:09:03.170Z,17.10
2018-11-04T13:11:31.526Z,17.00
2018-11-04T13:13:59.923Z,17.10
2018-11-04T13:16:28.535Z,16.40
2018-11-04T13:18:57.199Z,16.90
2018-11-04T13:21:25.693Z,16.90
2018-11-04T13:23:53.951Z,17.20
2018-11-04T13:26:22.230Z,16.90
2018-11-04T13:28:50.725Z,16.70
2018-11-04T13:31:19.131Z,16.80
2018-11-04T13:33:47.625Z,16.90
2018-11-04T13:36:16.069Z,16.30
2018-11-04T13:38:44.447Z,16.70
2018-11-04T13:41:13.003Z,17.10
2018-11-04T13:43:41.652Z,16.80
2018-11-04T13:46:10.614Z,16.70
2018-11-04T13:48:38.984Z,16.40
2018-11-04T13:51:07.536Z,17.00
2018-11-04T13:53:35.931Z,17.00
2018-11-04T13:56:04.474Z,16.60
2018-11-04T13:58:32.987Z,16.30
2018-11-04T14:01:01.527Z,17.00
2018-11-04T14:03:30.039Z,17.20
2018-11-04T14:05:58.572Z,17.10
2018-11-04T14:08:28.083Z,16.70
2018-11-04T14:10:56.526Z,17.30
2018-11-04T14:13:25.203Z,17.10
2018-11-04T14:15:53.963Z,16.70
2018-11-04T14:18:22.417Z,16.70
2018-11-04T14:20:51.186Z,16.50
2018-11-04T14:23:19.831Z,17.00
2018-11-04T14:25:48.373Z,16.80
2018-11-04T14:28:16.931Z,17.40
2018-11-04T14:30:45.431Z,16.90
2018-11-04T14:33:13.927Z,17.30
2018-11-04T14:35:42.810Z,16.50
2018-11-04T14:38:11.919Z,17.50
2018-11-04T14:40:40.501Z,17.60
2018-11-04T14:43:09.065Z,17.40
2018-11-04T14:45:37.739Z,17.50
2018-11-04T14:48:06.326Z,16.90
2018-11-04T14:50:34.767Z,17.10
2018-11-04T14:53:03.659Z,17.00
2018-11-04T14:55:32.198Z,16.80
2018-11-04T14:58:00.690Z,16.60
2018-11-04T15:00:33.752Z,16.50
2018-11-04T15:03:02.974Z,16.40
2018-11-04T15:05:31.685Z,16.30
2018-11-04T15:08:00.347Z,16.30
2018-11-04T15:10:29.758Z,16.00
2018-11-04T15:12:58.349Z,15.70
2018-11-04T15:15:27.049Z,16.00
2018-11-04T15:17:55.630Z,15.50
2018-11-04T15:20:24.099Z,15.50
2018-11-04T15:22:52.700Z,15.40
2018-11-04T15:25:22.254Z,15.00
2018-11-04T15:27:50.913Z,14.90
2018-11-04T15:32:53.942Z,15.20
2018-11-04T15:35:22.550Z,14.60
2018-11-04T15:37:51.716Z,14.50
2018-11-04T15:40:20.649Z,14.00
2018-11-04T15:42:49.211Z,14.10
2018-11-04T15:45:17.867Z,14.00
2018-11-04T15:47:46.481Z,14.00
2018-11-04T15:50:16.623Z,13.50
2018-11-04T15:52:46.357Z,12.90
2018-11-04T15:55:15.134Z,13.90
2018-11-04T15:57:43.741Z,13.30
2018-11-04T16:00:14.071Z,13.20
2018-11-04T16:02:42.523Z,12.60
2018-11-04T16:05:11.322Z,13.40
2018-11-04T16:07:39.897Z,13.30
2018-11-04T16:10:10.176Z,12.90
2018-11-04T16:12:39.379Z,12.50
2018-11-04T16:15:14.609Z,12.40
2018-11-04T16:17:43.757Z,12.60
2018-11-04T16:20:13.978Z,12.00
2018-11-04T16:22:43.197Z,12.20
2018-11-04T16:25:12.323Z,11.90
2018-11-04T16:27:41.546Z,11.40
2018-11-04T16:30:12.048Z,11.80
2018-11-04T16:32:40.496Z,12.00
2018-11-04T16:35:10.530Z,11.40
2018-11-04T16:37:39.789Z,11.60
2018-11-04T16:40:08.614Z,11.60
2018-11-04T16:42:37.634Z,11.40
2018-11-04T16:45:09.893Z,11.40
2018-11-04T16:47:38.872Z,11.30
2018-11-04T16:50:08.565Z,11.10
2018-11-04T16:52:37.149Z,10.50
2018-11-04T16:55:07.309Z,11.00
2018-11-04T16:57:35.653Z,10.30
2018-11-04T17:00:05.546Z,10.70
2018-11-04T17:02:33.985Z,10.80
2018-11-04T17:05:02.573Z,10.80
2018-11-04T17:07:31.199Z,10.70
2018-11-04T17:09:59.792Z,10.10
2018-11-04T17:12:29.426Z,10.20
2018-11-04T17:14:57.930Z,10.10
2018-11-04T17:17:26.349Z,10.60
2018-11-04T17:19:54.741Z,10.40
2018-11-04T17:22:23.291Z,10.10
2018-11-04T17:24:51.735Z,10.20
2018-11-04T17:27:20.174Z,10.00
2018-11-04T17:29:48.698Z,10.20
2018-11-04T17:32:18.035Z,9.90
2018-11-04T17:34:46.500Z,10.00
2018-11-04T17:37:16.316Z,9.80
2018-11-04T17:39:44.838Z,9.70
2018-11-04T17:42:13.302Z,9.80
2018-11-04T17:44:41.949Z,9.70
2018-11-04T17:47:10.334Z,9.70
2018-11-04T17:49:38.773Z,9.50
2018-11-04T17:52:07.260Z,9.90
2018-11-04T17:54:35.536Z,9.40
2018-11-04T17:57:04.063Z,9.50
2018-11-04T17:59:32.449Z,9.70
2018-11-04T18:02:00.918Z,9.50
2018-11-04T18:04:29.476Z,8.80
2018-11-04T18:06:57.875Z,9.60
2018-11-04T18:09:26.395Z,9.40
2018-11-04T18:11:54.942Z,9.50
2018-11-04T18:14:24.621Z,9.40
2018-11-04T18:16:52.928Z,9.40
2018-11-04T18:19:21.378Z,9.40
2018-11-04T18:21:49.674Z,9.20
2018-11-04T18:24:18.042Z,9.70
2018-11-04T18:26:46.735Z,9.30
2018-11-04T18:29:15.167Z,9.00
2018-11-04T18:31:43.514Z,9.20
2018-11-04T18:34:12.576Z,9.50
2018-11-04T18:36:41.099Z,8.60
2018-11-04T18:39:10.042Z,9.20
2018-11-04T18:41:38.716Z,8.40
2018-11-04T18:44:07.931Z,9.10
2018-11-04T18:46:36.749Z,9.30
2018-11-04T18:49:06.300Z,8.40
2018-11-04T18:51:34.831Z,8.80
2018-11-04T18:54:04.364Z,9.20
2018-11-04T18:56:32.890Z,8.50
2018-11-04T18:59:01.935Z,8.90
2018-11-04T19:01:30.254Z,9.10
2018-11-04T19:03:58.816Z,8.90
2018-11-04T19:06:27.498Z,9.10
2018-11-04T19:08:55.949Z,8.80
2018-11-04T19:11:24.604Z,8.80
2018-11-04T19:13:52.879Z,9.00
2018-11-04T19:16:21.200Z,9.10
2018-11-04T19:18:49.849Z,9.00
2018-11-04T19:21:18.236Z,8.80
2018-11-04T19:23:48.497Z,8.90
2018-11-04T19:26:16.980Z,9.00
2018-11-04T19:28:45.973Z,9.10
2018-11-04T19:31:14.671Z,8.40
2018-11-04T19:33:42.930Z,9.20
2018-11-04T19:36:11.220Z,8.40
2018-11-04T19:38:39.607Z,8.80
2018-11-04T19:41:07.891Z,8.80
2018-11-04T19:43:36.295Z,8.70
2018-11-04T19:46:04.751Z,8.90
2018-11-04T19:48:33.145Z,9.20
2018-11-04T19:51:01.564Z,8.80
2018-11-04T19:53:29.989Z,8.70
2018-11-04T19:55:59.065Z,8.90
2018-11-04T19:58:27.387Z,8.30
2018-11-04T20:00:55.848Z,8.10
2018-11-04T20:03:24.189Z,8.70
2018-11-04T20:05:52.675Z,8.80
2018-11-04T20:08:21.485Z,8.80
2018-11-04T20:10:49.766Z,8.20
2018-11-04T20:13:23.846Z,8.60
2018-11-04T20:15:52.423Z,9.00
2018-11-04T20:18:26.498Z,8.70
2018-11-04T20:20:54.808Z,8.80
2018-11-04T20:23:23.088Z,8.70
2018-11-04T20:25:57.784Z,8.80
2018-11-04T20:28:26.280Z,8.80
2018-11-04T20:30:54.708Z,8.50
2018-11-04T20:33:23.312Z,8.50
2018-11-04T20:35:51.814Z,8.60
2018-11-04T20:38:24.991Z,8.70
2018-11-04T20:40:58.998Z,8.70
2018-11-04T20:43:27.644Z,8.00
2018-11-04T20:45:55.998Z,8.60
2018-11-04T20:48:30.113Z,8.80
2018-11-04T20:51:02.631Z,8.70
2018-11-04T20:53:31.137Z,8.50
2018-11-04T20:56:05.159Z,8.70
2018-11-04T20:58:33.675Z,8.50
2018-11-04T21:01:02.098Z,8.60
2018-11-04T21:03:30.448Z,8.60
2018-11-04T21:05:59.156Z,8.50
2018-11-04T21:08:29.515Z,8.60
2018-11-04T21:10:57.818Z,8.60
2018-11-04T21:13:26.589Z,8.40
2018-11-04T21:15:55.054Z,8.40
2018-11-04T21:18:23.594Z,8.00
2018-11-04T21:20:52.244Z,8.40
2018-11-04T21:23:20.604Z,8.30
2018-11-04T21:25:49.048Z,8.30
2018-11-04T21:28:20.933Z,7.80
2018-11-04T21:30:49.295Z,8.30
2018-11-04T21:33:17.681Z,8.50
2018-11-04T21:35:46.148Z,8.50
2018-11-04T21:38:15.411Z,8.40
2018-11-04T21:40:43.817Z,7.70
2018-11-04T21:43:12.174Z,8.40
2018-11-04T21:45:41.406Z,8.00
2018-11-04T21:48:09.968Z,8.30
2018-11-04T21:50:38.345Z,7.60
2018-11-04T21:53:06.840Z,8.20
2018-11-04T21:55:35.355Z,8.20
2018-11-04T21:58:06.844Z,8.20
2018-11-04T22:00:35.135Z,8.00
2018-11-04T22:03:03.534Z,8.30
2018-11-04T22:05:31.961Z,8.10
2018-11-04T22:08:00.303Z,8.30
2018-11-04T22:10:28.771Z,7.70
2018-11-04T22:12:57.116Z,8.50
2018-11-04T22:15:25.394Z,8.60
2018-11-04T22:17:53.960Z,8.90
2018-11-04T22:20:22.256Z,8.70
2018-11-04T22:22:50.531Z,8.70
2018-11-04T22:25:18.895Z,9.10
2018-11-04T22:27:47.315Z,9.10
2018-11-04T22:30:15.742Z,9.20
2018-11-04T22:32:44.251Z,9.00
2018-11-04T22:35:12.676Z,9.20
2018-11-04T22:37:41.088Z,9.30
2018-11-04T22:40:11.074Z,8.90
2018-11-04T22:42:40.266Z,9.30
2018-11-04T22:45:10.000Z,8.80
2018-11-04T22:47:38.743Z,9.30
2018-11-04T22:50:11.426Z,9.20
2018-11-04T22:52:40.443Z,9.80
2018-11-04T22:55:09.175Z,9.40
2018-11-04T22:57:37.571Z,9.80
2018-11-04T23:00:13.346Z,9.90
2018-11-04T23:02:41.844Z,9.60
2018-11-04T23:05:15.822Z,9.60
2018-11-04T23:07:44.802Z,9.90
2018-11-04T23:10:13.392Z,9.70
2018-11-04T23:12:41.788Z,9.60
2018-11-04T23:15:10.184Z,9.20
2018-11-04T23:17:38.613Z,9.60
2018-11-04T23:20:07.855Z,10.00
2018-11-04T23:22:36.618Z,9.90
2018-11-04T23:25:06.685Z,9.30
2018-11-04T23:27:34.944Z,9.80
2018-11-04T23:30:04.603Z,10.10
2018-11-04T23:32:36.425Z,10.20
2018-11-04T23:35:05.372Z,10.20
2018-11-04T23:37:33.762Z,10.00
2018-11-04T23:40:02.187Z,10.00
2018-11-04T23:42:31.383Z,9.30
2018-11-04T23:45:00.558Z,10.10
2018-11-04T23:47:29.267Z,10.10
2018-11-04T23:49:57.882Z,10.00
2018-11-04T23:52:26.548Z,10.10
2018-11-04T23:54:55.082Z,10.00
2018-11-04T23:57:23.814Z,10.30
2018-11-04T23:59:52.579Z,10.00
